Time;durP1;ratioP1;P1;durP2;ratioP2;P2;SDS_P1;SDS_P2;PMS_P1;PMS_P2;Temp;Humidity;BMP_temperature;BMP_pressure;BME280_temperature;BME280_humidity;BME280_pressure;Samples;Min_cycle;Max_cycle;Signal;HPM_P1;HPM_P2
2023/12/10 00:00:04;;;;;;;;;;;;;;;16.85;41.68;101151.69;4988616;28;1109;-48
2023/12/10 00:02:30;;;;;;;;;;;;;;;16.20;43.03;101145.47;4982333;28;1898;-49
2023/12/10 00:04:55;;;;;;;;;;;;;;;15.91;43.52;101143.88;5011273;28;1064;-49
2023/12/10 00:07:21;;;;;;;;;;;;;;;16.93;41.76;101142.16;4994574;28;1091;-48
2023/12/10 00:09:47;;;;;;;;;;;;;;;17.88;39.33;101148.47;4983755;28;1123;-47
2023/12/10 00:12:12;;;;;;;;;;;;;;;16.80;41.64;101153.56;4982780;28;996;-46
2023/12/10 00:14:38;;;;;;;;;;;;;;;16.28;42.94;101144.19;4994159;28;912;-45
2023/12/10 00:17:03;;;;;;;;;;;;;;;15.94;43.71;101156.22;4983717;28;1172;-46
2023/12/10 00:19:29;;;;;;;;;;;;;;;16.25;42.88;101165.53;4996272;28;1064;-52
2023/12/10 00:21:55;;;;;;;;;;;;;;;17.53;40.24;101169.31;4983260;28;1965;-52
2023/12/10 00:24:22;;;;;;;;;;;;;;;17.28;40.54;101170.91;4988933;28;1079;-49
2023/12/10 00:26:47;;;;;;;;;;;;;;;16.45;42.27;101169.53;4987202;28;1075;-47
2023/12/10 00:29:13;;;;;;;;;;;;;;;16.06;43.16;101169.75;4988678;28;1076;-49
2023/12/10 00:31:42;;;;;;;;;;;;;;;16.19;43.21;101165.78;4977245;28;1056;-47
2023/12/10 00:34:08;;;;;;;;;;;;;;;17.57;40.29;101162.19;4996698;28;1027;-48
2023/12/10 00:36:34;;;;;;;;;;;;;;;16.82;41.45;101168.69;4995233;28;1151;-47
2023/12/10 00:39:00;;;;;;;;;;;;;;;16.16;42.89;101156.16;4980058;28;901;-48
2023/12/10 00:41:26;;;;;;;;;;;;;;;15.85;43.62;101166.00;4990824;28;1045;-50
2023/12/10 00:43:51;;;;;;;;;;;;;;;16.29;43.03;101163.13;4996113;28;1906;-46
2023/12/10 00:46:17;;;;;;;;;;;;;;;17.54;40.18;101166.28;4994795;28;1031;-47
2023/12/10 00:48:43;;;;;;;;;;;;;;;16.98;41.12;101157.84;4976910;28;1127;-46
2023/12/10 00:51:17;;;;;;;;;;;;;;;16.26;42.81;101155.41;4979581;28;1044;-49
2023/12/10 00:53:43;;;;;;;;;;;;;;;15.95;43.49;101159.78;4996107;28;1024;-49
2023/12/10 00:56:08;;;;;;;;;;;;;;;17.42;40.56;101161.03;4995667;28;1111;-49
2023/12/10 00:58:34;;;;;;;;;;;;;;;17.33;40.63;101162.66;4996517;28;1073;-47
2023/12/10 01:00:59;;;;;;;;;;;;;;;16.53;42.38;101147.09;4993667;28;1084;-48
2023/12/10 01:03:25;;;;;;;;;;;;;;;16.08;43.12;101142.91;4989674;28;1906;-52
2023/12/10 01:05:51;;;;;;;;;;;;;;;15.79;44.03;101134.13;4983257;28;1183;-49
2023/12/10 01:08:17;;;;;;;;;;;;;;;16.97;41.46;101137.78;4996121;28;1036;-51
2023/12/10 01:10:43;;;;;;;;;;;;;;;17.49;40.01;101136.06;4981074;28;1242;-49
2023/12/10 01:13:08;;;;;;;;;;;;;;;16.51;42.35;101132.81;4985291;28;1072;-50
2023/12/10 01:15:34;;;;;;;;;;;;;;;16.04;43.49;101145.34;4992461;28;1039;-48
2023/12/10 01:18:00;;;;;;;;;;;;;;;16.21;42.94;101138.91;4976819;28;1040;-50
2023/12/10 01:20:32;;;;;;;;;;;;;;;17.60;40.10;101145.97;4989511;28;1080;-47
2023/12/10 01:22:58;;;;;;;;;;;;;;;17.01;41.14;101141.66;4976717;28;1902;-50
2023/12/10 01:25:24;;;;;;;;;;;;;;;16.32;42.60;101132.41;4980896;28;1163;-47
2023/12/10 01:27:51;;;;;;;;;;;;;;;15.99;43.58;101142.56;4984268;28;904;-50
2023/12/10 01:30:16;;;;;;;;;;;;;;;16.03;43.58;101137.38;4992765;28;1212;-46
2023/12/10 01:32:42;;;;;;;;;;;;;;;17.45;40.62;101143.19;4988888;28;1080;-50
2023/12/10 01:35:08;;;;;;;;;;;;;;;17.30;40.64;101140.38;4999533;28;1080;-49
2023/12/10 01:37:34;;;;;;;;;;;;;;;16.52;42.47;101147.38;4990300;28;1148;-47
2023/12/10 01:39:59;;;;;;;;;;;;;;;16.00;43.52;101144.22;4979623;28;1087;-46
2023/12/10 01:42:25;;;;;;;;;;;;;;;15.82;43.73;101141.84;4988971;28;1977;-47
2023/12/10 01:44:50;;;;;;;;;;;;;;;17.16;40.93;101140.06;4983286;28;1126;-46
2023/12/10 01:47:18;;;;;;;;;;;;;;;17.53;40.23;101134.41;4980072;28;1168;-49
2023/12/10 01:49:44;;;;;;;;;;;;;;;16.50;42.46;101125.66;4995479;28;1071;-48
2023/12/10 01:52:10;;;;;;;;;;;;;;;16.10;43.22;101127.00;4991080;28;1427;-50
2023/12/10 01:54:35;;;;;;;;;;;;;;;15.86;43.95;101123.78;4977890;28;1188;-50
2023/12/10 01:57:02;;;;;;;;;;;;;;;17.27;40.82;101120.56;4989736;28;1140;-47
2023/12/10 01:59:27;;;;;;;;;;;;;;;17.51;40.06;101119.28;4982073;28;1037;-49
2023/12/10 02:01:53;;;;;;;;;;;;;;;16.53;42.07;101114.16;4997515;28;1910;-50
2023/12/10 02:04:18;;;;;;;;;;;;;;;16.07;43.20;101114.66;4995309;28;931;-49
2023/12/10 02:06:44;;;;;;;;;;;;;;;15.90;43.60;101113.97;4978432;28;1084;-47
2023/12/10 02:09:12;;;;;;;;;;;;;;;17.32;40.87;101122.53;4992089;28;1105;-48
2023/12/10 02:11:41;;;;;;;;;;;;;;;17.28;40.50;101121.41;4979220;28;1060;-48
2023/12/10 02:14:06;;;;;;;;;;;;;;;16.40;42.67;101123.69;4995887;28;1159;-47
2023/12/10 02:16:32;;;;;;;;;;;;;;;15.99;43.69;101117.88;4991185;28;919;-45
2023/12/10 02:18:58;;;;;;;;;;;;;;;16.78;41.74;101120.91;4994787;28;1072;-47
2023/12/10 02:21:24;;;;;;;;;;;;;;;17.81;39.77;101117.66;4978970;28;1068;-50
2023/12/10 02:23:51;;;;;;;;;;;;;;;16.69;42.04;101112.34;4993583;28;1979;-47
2023/12/10 02:26:16;;;;;;;;;;;;;;;16.21;43.10;101108.72;4989197;28;1084;-49
2023/12/10 02:28:42;;;;;;;;;;;;;;;15.89;43.80;101102.16;4992935;28;1006;-48
2023/12/10 02:31:08;;;;;;;;;;;;;;;17.04;41.34;101110.91;4977966;28;1144;-49
2023/12/10 02:33:33;;;;;;;;;;;;;;;17.58;40.03;101103.34;4982755;28;1064;-50
2023/12/10 02:35:59;;;;;;;;;;;;;;;16.58;41.99;101108.69;4998031;28;1044;-50
2023/12/10 02:38:24;;;;;;;;;;;;;;;16.17;43.02;101102.09;4982177;28;1574;-48
2023/12/10 02:40:50;;;;;;;;;;;;;;;16.37;42.91;101102.25;4996679;28;875;-46
2023/12/10 02:43:19;;;;;;;;;;;;;;;17.66;40.07;101105.56;4997150;28;1906;-49
2023/12/10 02:45:45;;;;;;;;;;;;;;;16.76;41.80;101099.19;4988172;28;1143;-47
2023/12/10 02:48:11;;;;;;;;;;;;;;;16.16;43.02;101100.44;4981863;28;1168;-46
2023/12/10 02:50:36;;;;;;;;;;;;;;;15.88;43.69;101102.44;4997976;28;1083;-46
2023/12/10 02:53:02;;;;;;;;;;;;;;;15.71;44.02;101106.09;4994171;28;1020;-46
2023/12/10 02:55:27;;;;;;;;;;;;;;;17.07;41.16;101107.59;4997789;28;1020;-47
2023/12/10 02:57:53;;;;;;;;;;;;;;;17.91;39.29;101112.22;4984486;28;1096;-46
2023/12/10 03:00:19;;;;;;;;;;;;;;;16.82;41.79;101101.97;4997983;28;1140;-46
2023/12/10 03:02:45;;;;;;;;;;;;;;;16.22;42.86;101110.38;4997063;28;1973;-44
2023/12/10 03:05:10;;;;;;;;;;;;;;;15.92;43.39;101098.06;4970247;28;1040;-48
2023/12/10 03:07:36;;;;;;;;;;;;;;;16.31;42.79;101106.03;4990914;28;1048;-50
2023/12/10 03:10:02;;;;;;;;;;;;;;;17.63;40.13;101103.38;4987517;28;1199;-48
2023/12/10 03:12:27;;;;;;;;;;;;;;;16.89;41.68;101100.66;4994485;28;1084;-48
2023/12/10 03:14:53;;;;;;;;;;;;;;;16.23;43.00;101103.81;4986362;28;1020;-50
2023/12/10 03:17:18;;;;;;;;;;;;;;;15.88;43.71;101105.19;4980335;28;1127;-51
2023/12/10 03:19:44;;;;;;;;;;;;;;;16.72;42.15;101106.31;4997352;28;1087;-48
2023/12/10 03:22:10;;;;;;;;;;;;;;;17.77;39.67;101101.72;4983742;28;1972;-49
2023/12/10 03:24:35;;;;;;;;;;;;;;;16.69;42.00;101104.09;4988629;28;1187;-47
2023/12/10 03:27:01;;;;;;;;;;;;;;;16.14;43.17;101108.94;4990414;28;1215;-50
2023/12/10 03:29:26;;;;;;;;;;;;;;;17.07;41.37;101104.03;4996832;28;1139;-49
2023/12/10 03:31:52;;;;;;;;;;;;;;;17.66;40.03;101100.06;4997007;28;1088;-47
2023/12/10 03:34:17;;;;;;;;;;;;;;;16.60;42.22;101106.50;4997031;28;1156;-49
2023/12/10 03:36:43;;;;;;;;;;;;;;;16.18;43.25;101109.25;4994667;28;1028;-46
2023/12/10 03:39:09;;;;;;;;;;;;;;;15.83;43.60;101111.41;4985202;28;1203;-45
2023/12/10 03:41:34;;;;;;;;;;;;;;;17.00;41.50;101103.44;4990304;28;1029;-48
2023/12/10 03:44:00;;;;;;;;;;;;;;;17.24;40.71;101106.56;4986432;28;1907;-50
2023/12/10 03:46:25;;;;;;;;;;;;;;;16.39;42.71;101102.00;4974714;28;1162;-46
2023/12/10 03:48:51;;;;;;;;;;;;;;;15.99;43.67;101106.91;4979227;28;2606;-48
2023/12/10 03:51:17;;;;;;;;;;;;;;;16.32;43.13;101110.44;4986606;28;2322;-50
2023/12/10 03:53:42;;;;;;;;;;;;;;;17.61;40.06;101111.03;4991880;28;2158;-49
2023/12/10 03:56:09;;;;;;;;;;;;;;;16.69;41.79;101114.25;4984311;28;2229;-47
2023/12/10 03:58:35;;;;;;;;;;;;;;;16.11;43.32;101109.47;4984055;28;2037;-49
2023/12/10 04:01:01;;;;;;;;;;;;;;;16.84;41.96;101111.56;4981999;28;2232;-47
2023/12/10 04:03:26;;;;;;;;;;;;;;;17.93;39.67;101104.50;4989064;28;1906;-48
2023/12/10 04:05:52;;;;;;;;;;;;;;;17.06;41.27;101097.69;4988010;28;1112;-48
2023/12/10 04:08:18;;;;;;;;;;;;;;;16.40;42.69;101084.44;4978381;28;1112;-52
2023/12/10 04:10:43;;;;;;;;;;;;;;;16.04;43.40;101078.69;4970787;28;1221;-49
2023/12/10 04:13:09;;;;;;;;;;;;;;;16.13;43.40;101076.28;4996142;28;1270;-51
2023/12/10 04:15:34;;;;;;;;;;;;;;;17.53;40.27;101082.16;4994313;28;1321;-50
2023/12/10 04:18:00;;;;;;;;;;;;;;;17.15;40.85;101075.19;4994161;28;1329;-51
2023/12/10 04:20:26;;;;;;;;;;;;;;;16.40;42.68;101079.75;4992648;28;1372;-51
2023/12/10 04:22:51;;;;;;;;;;;;;;;16.01;43.58;101069.06;4995270;28;1906;-50
2023/12/10 04:25:17;;;;;;;;;;;;;;;16.49;42.69;101073.78;4993612;28;1302;-50
2023/12/10 04:27:43;;;;;;;;;;;;;;;17.72;40.00;101076.94;4993196;28;1145;-45
2023/12/10 04:30:08;;;;;;;;;;;;;;;16.86;41.61;101076.44;4994747;28;1129;-47
2023/12/10 04:32:34;;;;;;;;;;;;;;;16.29;42.90;101069.81;4990371;28;2544;-50
2023/12/10 04:35:00;;;;;;;;;;;;;;;15.93;43.59;101066.00;4983449;28;1031;-50
2023/12/10 04:37:25;;;;;;;;;;;;;;;17.22;41.02;101075.75;4979366;28;1076;-49
2023/12/10 04:39:51;;;;;;;;;;;;;;;17.24;40.61;101079.09;4962893;28;1064;-48
2023/12/10 04:42:16;;;;;;;;;;;;;;;16.42;42.57;101072.09;4995405;28;1903;-47
2023/12/10 04:44:42;;;;;;;;;;;;;;;15.95;43.49;101078.34;4994752;28;1321;-47
2023/12/10 04:47:07;;;;;;;;;;;;;;;16.61;42.18;101077.16;4995154;28;1247;-47
2023/12/10 04:49:33;;;;;;;;;;;;;;;17.73;39.76;101084.09;4991475;28;1361;-50
2023/12/10 04:51:59;;;;;;;;;;;;;;;16.66;41.91;101087.31;4977268;28;1229;-44
2023/12/10 04:54:26;;;;;;;;;;;;;;;16.14;43.39;101099.88;4974390;28;1049;-49
2023/12/10 04:56:51;;;;;;;;;;;;;;;15.84;44.11;101101.31;4986018;28;1033;-50
2023/12/10 04:59:17;;;;;;;;;;;;;;;17.04;41.36;101116.38;4984253;28;1150;-47
2023/12/10 05:01:42;;;;;;;;;;;;;;;17.40;40.45;101108.28;4998190;28;2463;-50
2023/12/10 05:04:08;;;;;;;;;;;;;;;16.45;42.40;101102.84;4985174;28;1914;-48
2023/12/10 05:06:34;;;;;;;;;;;;;;;16.04;43.31;101112.44;4980160;28;1037;-48
2023/12/10 05:09:01;;;;;;;;;;;;;;;16.77;41.85;101105.50;4992078;28;1009;-48
2023/12/10 05:11:27;;;;;;;;;;;;;;;17.53;40.29;101108.81;4997131;28;973;-51
2023/12/10 05:13:53;;;;;;;;;;;;;;;16.52;42.48;101111.69;4986141;28;1055;-52
2023/12/10 05:16:19;;;;;;;;;;;;;;;16.08;43.40;101110.81;4994688;28;1068;-47
2023/12/10 05:18:44;;;;;;;;;;;;;;;16.03;43.72;101107.19;4979595;28;1061;-52
2023/12/10 05:21:10;;;;;;;;;;;;;;;17.44;40.52;101100.28;4979988;28;1071;-49
2023/12/10 05:23:35;;;;;;;;;;;;;;;17.00;41.28;101098.78;4981952;28;1995;-47
2023/12/10 05:26:01;;;;;;;;;;;;;;;16.25;42.69;101098.88;4999483;28;1054;-47
2023/12/10 05:28:27;;;;;;;;;;;;;;;17.37;40.62;101096.97;4982575;28;1237;-50
2023/12/10 05:30:52;;;;;;;;;;;;;;;16.99;41.00;101097.13;4978124;28;2332;-48
2023/12/10 05:33:18;;;;;;;;;;;;;;;16.18;42.92;101090.03;4989893;28;1396;-49
2023/12/10 05:35:43;;;;;;;;;;;;;;;17.48;40.39;101087.66;4997341;28;1435;-51
2023/12/10 05:38:09;;;;;;;;;;;;;;;16.35;42.73;101079.72;4978715;28;1336;-48
2023/12/10 05:40:35;;;;;;;;;;;;;;;17.03;41.30;101087.25;4987137;28;1358;-49
2023/12/10 05:43:00;;;;;;;;;;;;;;;17.57;39.89;101085.19;4986347;28;1913;-52
2023/12/10 05:45:27;;;;;;;;;;;;;;;16.41;42.37;101088.81;4994163;28;1068;-47
2023/12/10 05:47:53;;;;;;;;;;;;;;;17.34;40.62;101081.84;4998724;28;1188;-45
2023/12/10 05:50:19;;;;;;;;;;;;;;;17.08;40.92;101086.44;4985376;28;1163;-49
2023/12/10 05:52:44;;;;;;;;;;;;;;;16.30;42.83;101087.94;4992723;28;1095;-50
2023/12/10 05:55:10;;;;;;;;;;;;;;;17.81;39.63;101093.75;4992167;28;1108;-51
2023/12/10 05:57:35;;;;;;;;;;;;;;;16.62;42.18;101070.56;4992583;28;1141;-46
2023/12/10 06:00:01;;;;;;;;;;;;;;;17.78;39.98;101088.78;4983157;28;1112;-49
2023/12/10 06:02:30;;;;;;;;;;;;;;;17.51;40.15;101080.78;4981772;28;2081;-51
2023/12/10 06:04:55;;;;;;;;;;;;;;;16.77;42.14;101083.53;4984951;28;1198;-47
2023/12/10 06:07:21;;;;;;;;;;;;;;;18.41;38.67;101085.75;4996637;28;1052;-48
2023/12/10 06:09:47;;;;;;;;;;;;;;;17.22;40.77;101084.00;4978828;28;1139;-47
2023/12/10 06:12:12;;;;;;;;;;;;;;;17.27;41.13;101082.09;4991501;28;1145;-49
2023/12/10 06:14:38;;;;;;;;;;;;;;;18.01;39.24;101078.38;4981590;28;1045;-51
2023/12/10 06:17:03;;;;;;;;;;;;;;;16.91;41.57;101078.41;4982691;28;1010;-48
2023/12/10 06:19:29;;;;;;;;;;;;;;;16.67;42.11;101086.25;4979104;28;1034;-50
2023/12/10 06:21:55;;;;;;;;;;;;;;;18.46;38.80;101073.91;4989395;28;1918;-48
2023/12/10 06:24:20;;;;;;;;;;;;;;;17.21;41.19;101071.38;4980682;28;1064;-47
2023/12/10 06:26:46;;;;;;;;;;;;;;;17.28;41.42;101074.69;4979047;28;1100;-47
2023/12/10 06:29:11;;;;;;;;;;;;;;;18.28;39.03;101075.31;4991424;28;1037;-50
2023/12/10 06:31:37;;;;;;;;;;;;;;;17.04;41.60;101080.66;4985707;28;1988;-48
2023/12/10 06:34:03;;;;;;;;;;;;;;;16.58;42.55;101085.91;4965660;28;1046;-49
2023/12/10 06:36:28;;;;;;;;;;;;;;;17.67;40.52;101082.47;4988348;28;1049;-49
2023/12/10 06:38:54;;;;;;;;;;;;;;;17.32;40.80;101080.47;4985203;28;997;-47
2023/12/10 06:41:19;;;;;;;;;;;;;;;17.07;41.66;101079.31;4983513;28;1231;-51
2023/12/10 06:43:46;;;;;;;;;;;;;;;18.39;38.83;101071.44;4978122;28;1930;-50
2023/12/10 06:46:13;;;;;;;;;;;;;;;17.10;41.25;101071.34;4981573;28;1025;-50
2023/12/10 06:48:38;;;;;;;;;;;;;;;16.63;42.25;101072.19;4987550;28;1184;-49
2023/12/10 06:51:04;;;;;;;;;;;;;;;17.95;39.83;101080.31;4991617;28;990;-49
2023/12/10 06:53:31;;;;;;;;;;;;;;;17.34;40.89;101081.84;4987997;28;1085;-50
2023/12/10 06:55:57;;;;;;;;;;;;;;;16.68;42.34;101079.66;4982507;28;1009;-47
2023/12/10 06:58:23;;;;;;;;;;;;;;;18.01;39.91;101079.19;4983330;28;1451;-46
2023/12/10 07:00:50;;;;;;;;;;;;;;;17.12;41.32;101084.81;4976620;28;1894;-51
2023/12/10 07:03:15;;;;;;;;;;;;;;;18.19;39.36;101082.47;4987216;28;1952;-48
2023/12/10 07:05:41;;;;;;;;;;;;;;;18.45;38.80;101073.09;4980314;28;1097;-48
2023/12/10 07:08:06;;;;;;;;;;;;;;;17.24;41.00;101082.66;4987757;28;1180;-49
2023/12/10 07:10:32;;;;;;;;;;;;;;;16.87;41.71;101085.50;4983649;28;1160;-44
2023/12/10 07:12:58;;;;;;;;;;;;;;;17.77;40.51;101085.22;4989369;28;1168;-48
2023/12/10 07:15:23;;;;;;;;;;;;;;;17.67;40.37;101082.47;4981492;28;1037;-46
2023/12/10 07:17:49;;;;;;;;;;;;;;;16.90;42.05;101087.72;4986530;28;1105;-52
2023/12/10 07:20:15;;;;;;;;;;;;;;;16.52;42.59;101087.81;4982429;28;1212;-47
2023/12/10 07:22:41;;;;;;;;;;;;;;;16.87;42.00;101088.25;4976616;28;1918;-49
2023/12/10 07:25:07;;;;;;;;;;;;;;;17.43;40.85;101084.88;4985677;28;1099;-52
2023/12/10 07:27:32;;;;;;;;;;;;;;;17.40;41.22;101091.78;4985282;28;997;-48
2023/12/10 07:29:58;;;;;;;;;;;;;;;18.74;38.29;101080.69;4982975;28;1124;-49
2023/12/10 07:32:24;;;;;;;;;;;;;;;17.51;40.75;101076.09;4979948;28;2116;-45
2023/12/10 07:34:49;;;;;;;;;;;;;;;16.91;41.76;101086.66;4980770;28;1156;-52
2023/12/10 07:37:15;;;;;;;;;;;;;;;16.67;42.30;101087.06;4993106;28;1053;-58
2023/12/10 07:39:41;;;;;;;;;;;;;;;18.15;39.44;101090.47;4983775;28;996;-59
2023/12/10 07:42:06;;;;;;;;;;;;;;;16.92;41.71;101088.31;4987153;28;1971;-61
2023/12/10 07:44:33;;;;;;;;;;;;;;;16.57;42.36;101090.56;4976268;28;1071;-61
2023/12/10 07:46:59;;;;;;;;;;;;;;;17.77;40.26;101089.91;4989106;28;1167;-59
2023/12/10 07:49:24;;;;;;;;;;;;;;;17.20;41.11;101089.78;4989533;28;1096;-57
2023/12/10 07:51:50;;;;;;;;;;;;;;;17.81;40.15;101092.91;4977141;28;1001;-58
2023/12/10 07:54:15;;;;;;;;;;;;;;;18.50;38.55;101099.78;4988874;28;1048;-57
2023/12/10 07:56:41;;;;;;;;;;;;;;;17.24;41.02;101092.81;4990058;28;1089;-60
2023/12/10 07:59:06;;;;;;;;;;;;;;;16.81;42.01;101098.38;4976475;28;1052;-54
2023/12/10 08:01:32;;;;;;;;;;;;;;;16.72;42.10;101087.09;4989800;28;1977;-55
2023/12/10 08:03:58;;;;;;;;;;;;;;;18.06;39.68;101090.22;4989104;28;1979;-56
2023/12/10 08:06:23;;;;;;;;;;;;;;;16.97;41.78;101096.59;4989229;28;1016;-54
2023/12/10 08:08:49;;;;;;;;;;;;;;;18.60;38.46;101104.44;4976694;28;1040;-58
2023/12/10 08:11:15;;;;;;;;;;;;;;;17.94;39.71;101111.66;4974477;28;1198;-50
2023/12/10 08:13:40;;;;;;;;;;;;;;;17.12;41.41;101105.97;4976593;28;1067;-48
2023/12/10 08:16:06;;;;;;;;;;;;;;;17.55;40.97;101112.97;4982254;28;1052;-47
2023/12/10 08:18:32;;;;;;;;;;;;;;;17.44;40.84;101109.34;4976641;28;1016;-50
2023/12/10 08:20:59;;;;;;;;;;;;;;;16.93;41.80;101107.25;4976584;28;1021;-52
2023/12/10 08:23:24;;;;;;;;;;;;;;;17.77;40.40;101109.97;4976363;28;1975;-49
2023/12/10 08:25:50;;;;;;;;;;;;;;;17.26;41.29;101116.19;4976110;28;1048;-51
2023/12/10 08:28:15;;;;;;;;;;;;;;;16.72;42.21;101108.25;4975829;28;1208;-50
2023/12/10 08:30:41;;;;;;;;;;;;;;;17.61;40.55;101114.63;4975667;28;1919;-52
2023/12/10 08:33:07;;;;;;;;;;;;;;;17.20;41.48;101108.19;4983700;28;1228;-48
2023/12/10 08:35:32;;;;;;;;;;;;;;;17.42;41.13;101105.25;4984913;28;1293;-48
2023/12/10 08:37:58;;;;;;;;;;;;;;;18.34;38.77;101096.25;4980563;28;1145;-46
2023/12/10 08:40:23;;;;;;;;;;;;;;;17.10;41.59;101085.06;4999257;28;1009;-49
2023/12/10 08:42:49;;;;;;;;;;;;;;;17.79;40.25;101093.19;4984377;28;1987;-53
2023/12/10 08:45:15;;;;;;;;;;;;;;;17.51;40.74;101089.03;4992633;28;1116;-54
2023/12/10 08:47:40;;;;;;;;;;;;;;;16.87;41.73;101086.34;4984946;28;990;-53
2023/12/10 08:50:06;;;;;;;;;;;;;;;17.66;40.61;101080.81;4995996;28;1337;-54
2023/12/10 08:52:32;;;;;;;;;;;;;;;17.40;40.86;101080.78;4986161;28;1193;-57
2023/12/10 08:54:57;;;;;;;;;;;;;;;16.80;41.87;101088.47;4986594;28;1118;-57
2023/12/10 08:57:23;;;;;;;;;;;;;;;17.60;40.35;101082.72;4983107;28;1136;-58
2023/12/10 08:59:49;;;;;;;;;;;;;;;17.25;41.21;101072.47;4988761;28;1105;-52
2023/12/10 09:02:15;;;;;;;;;;;;;;;16.72;42.02;101065.13;4985334;28;1985;-53
2023/12/10 09:04:40;;;;;;;;;;;;;;;17.39;40.94;101061.78;4997167;28;1104;-57
2023/12/10 09:07:06;;;;;;;;;;;;;;;17.27;41.00;101059.28;4990527;28;858;-56
2023/12/10 09:09:32;;;;;;;;;;;;;;;17.58;40.41;101062.09;4994455;28;1001;-54
2023/12/10 09:11:58;;;;;;;;;;;;;;;18.69;38.37;101055.09;4990933;28;1095;-55
2023/12/10 09:14:24;;;;;;;;;;;;;;;17.28;40.91;101055.47;4994510;28;1117;-56
2023/12/10 09:16:50;;;;;;;;;;;;;;;17.96;39.78;101054.44;4998393;28;1051;-55
2023/12/10 09:19:16;;;;;;;;;;;;;;;17.87;39.80;101056.06;4985621;28;1210;-54
2023/12/10 09:21:43;;;;;;;;;;;;;;;17.12;41.32;101051.81;4985170;28;918;-56
2023/12/10 09:24:09;;;;;;;;;;;;;;;17.65;40.46;101046.16;4987100;28;1966;-57
2023/12/10 09:26:35;;;;;;;;;;;;;;;17.47;40.86;101046.69;4985387;28;1100;-55
2023/12/10 09:29:00;;;;;;;;;;;;;;;16.87;41.79;101047.03;4979500;28;1148;-55
2023/12/10 09:31:27;;;;;;;;;;;;;;;18.20;39.18;101043.69;4984234;28;2103;-47
2023/12/10 09:33:52;;;;;;;;;;;;;;;17.52;40.49;101038.47;4979788;28;1268;-48
2023/12/10 09:36:18;;;;;;;;;;;;;;;16.92;41.67;101025.13;4979176;28;1137;-46
2023/12/10 09:38:44;;;;;;;;;;;;;;;16.70;41.89;101028.03;4982783;28;1184;-49
2023/12/10 09:41:10;;;;;;;;;;;;;;;17.57;40.71;101019.19;4979673;28;1085;-48
2023/12/10 09:43:35;;;;;;;;;;;;;;;17.57;40.52;101013.69;4988362;28;1910;-45
2023/12/10 09:46:01;;;;;;;;;;;;;;;16.84;41.74;101017.38;4983701;28;1325;-46
2023/12/10 09:48:27;;;;;;;;;;;;;;;18.07;39.64;101017.53;4996727;28;1061;-54
2023/12/10 09:50:53;;;;;;;;;;;;;;;17.43;40.64;101013.41;4984209;28;1126;-54
2023/12/10 09:53:21;;;;;;;;;;;;;;;16.88;41.76;101007.50;4987123;28;1069;-49
2023/12/10 09:55:47;;;;;;;;;;;;;;;18.42;39.00;101002.03;4975636;28;1252;-50
2023/12/10 09:58:13;;;;;;;;;;;;;;;17.22;41.04;101002.41;4978126;28;1160;-52
2023/12/10 10:00:39;;;;;;;;;;;;;;;17.42;41.12;100995.28;4984129;28;1970;-52
2023/12/10 10:03:05;;;;;;;;;;;;;;;17.81;39.96;100997.47;4978967;28;1902;-51
2023/12/10 10:05:32;;;;;;;;;;;;;;;16.99;41.46;100986.44;4978571;28;1268;-51
2023/12/10 10:07:58;;;;;;;;;;;;;;;18.12;39.53;100991.97;4974091;28;1153;-48
2023/12/10 10:10:25;;;;;;;;;;;;;;;17.41;40.67;100982.63;4983279;28;1115;-53
2023/12/10 10:12:52;;;;;;;;;;;;;;;16.88;41.78;100985.53;4977398;28;1314;-52
2023/12/10 10:15:27;;;;;;;;;;;;;;;16.77;42.17;100979.19;4982054;28;1016;-51
2023/12/10 10:17:54;;;;;;;;;;;;;;;18.15;39.30;100974.06;4979544;28;1136;-47
2023/12/10 10:20:22;;;;;;;;;;;;;;;17.06;41.54;100968.56;4978276;28;1178;-49
2023/12/10 10:22:48;;;;;;;;;;;;;;;17.48;40.77;100966.69;4982439;28;1906;-50
2023/12/10 10:25:14;;;;;;;;;;;;;;;17.44;40.80;100955.41;4966471;28;1310;-48
2023/12/10 10:27:40;;;;;;;;;;;;;;;18.35;38.93;100962.16;4984678;28;1185;-46
2023/12/10 10:30:06;;;;;;;;;;;;;;;19.09;37.41;100952.16;4974482;28;1491;-48
2023/12/10 10:32:31;;;;;;;;;;;;;;;17.69;40.19;100955.69;4979226;28;1962;-46
2023/12/10 10:34:57;;;;;;;;;;;;;;;17.16;41.43;100948.53;4980254;28;1049;-47
2023/12/10 10:37:24;;;;;;;;;;;;;;;16.83;41.75;100944.31;4984201;28;1377;-47
2023/12/10 10:39:49;;;;;;;;;;;;;;;17.08;41.53;100930.66;4979315;28;1049;-48
2023/12/10 10:42:18;;;;;;;;;;;;;;;18.43;38.84;100925.78;4992640;28;1902;-47
2023/12/10 10:44:44;;;;;;;;;;;;;;;17.20;41.25;100930.38;4976908;28;1215;-50
2023/12/10 10:47:09;;;;;;;;;;;;;;;18.12;39.73;100926.72;4971986;28;1259;-48
2023/12/10 10:49:39;;;;;;;;;;;;;;;17.84;39.96;100921.81;4984061;28;1413;-51
2023/12/10 10:52:05;;;;;;;;;;;;;;;17.09;41.57;100926.00;4984763;28;1342;-48
2023/12/10 10:54:31;;;;;;;;;;;;;;;18.60;38.49;100915.22;4983246;28;1153;-46
2023/12/10 10:56:57;;;;;;;;;;;;;;;17.47;40.54;100909.22;4992135;28;1232;-49
2023/12/10 10:59:32;;;;;;;;;;;;;;;17.20;41.60;100910.34;4988216;28;1101;-46
2023/12/10 11:02:08;;;;;;;;;;;;;;;17.66;40.25;100904.81;4978752;28;1848;-49
2023/12/10 11:04:40;;;;;;;;;;;;;;;17.03;41.48;100900.44;4990497;28;1173;-46
2023/12/10 11:07:06;;;;;;;;;;;;;;;17.58;40.67;100897.13;4983191;28;1091;-49
2023/12/10 11:09:31;;;;;;;;;;;;;;;17.43;40.85;100887.78;4983599;28;946;-48
2023/12/10 11:11:58;;;;;;;;;;;;;;;16.95;41.92;100898.22;4976815;28;1152;-48
2023/12/10 11:14:23;;;;;;;;;;;;;;;16.63;42.30;100898.41;4971624;28;1098;-50
2023/12/10 11:17:01;;;;;;;;;;;;;;;18.36;38.98;100887.53;4969073;28;1068;-51
2023/12/10 11:19:28;;;;;;;;;;;;;;;17.08;41.73;100885.88;4985688;28;1081;-46
2023/12/10 11:21:56;;;;;;;;;;;;;;;16.69;42.31;100880.84;4981479;28;1077;-46
2023/12/10 11:24:23;;;;;;;;;;;;;;;17.81;40.26;100887.47;4977089;28;1902;-50
2023/12/10 11:26:49;;;;;;;;;;;;;;;17.52;40.61;100879.00;4977030;28;1042;-49
2023/12/10 11:29:14;;;;;;;;;;;;;;;16.86;41.80;100883.38;4986700;28;1149;-46
2023/12/10 11:31:41;;;;;;;;;;;;;;;16.67;42.10;100872.88;4985191;28;2089;-48
2023/12/10 11:34:07;;;;;;;;;;;;;;;18.09;39.89;100871.41;4977455;28;1049;-45
2023/12/10 11:36:33;;;;;;;;;;;;;;;17.41;40.96;100856.19;4977329;28;1095;-48
2023/12/10 11:38:58;;;;;;;;;;;;;;;16.88;41.84;100864.69;4978507;28;1224;-44
2023/12/10 11:41:24;;;;;;;;;;;;;;;16.66;42.34;100863.03;4977102;28;1088;-48
2023/12/10 11:43:49;;;;;;;;;;;;;;;18.18;39.42;100864.22;4991522;28;1905;-46
2023/12/10 11:46:19;;;;;;;;;;;;;;;16.99;41.70;100858.13;4976632;28;1215;-49
2023/12/10 11:48:45;;;;;;;;;;;;;;;16.58;42.45;100855.31;4977002;28;1088;-50
2023/12/10 11:51:11;;;;;;;;;;;;;;;17.97;39.68;100854.44;4976400;28;1001;-48
2023/12/10 11:53:38;;;;;;;;;;;;;;;16.88;41.91;100850.94;4976959;28;1407;-50
2023/12/10 11:56:04;;;;;;;;;;;;;;;16.56;42.51;100852.84;4975986;28;1010;-49
2023/12/10 11:58:31;;;;;;;;;;;;;;;17.86;40.14;100850.84;4977073;28;1048;-46
2023/12/10 12:01:00;;;;;;;;;;;;;;;16.70;42.47;100852.31;4986508;28;1863;-47
2023/12/10 12:03:26;;;;;;;;;;;;;;;18.43;38.95;100855.00;4976497;28;1898;-50
2023/12/10 12:05:52;;;;;;;;;;;;;;;17.68;40.27;100844.03;4979156;28;982;-48
2023/12/10 12:08:18;;;;;;;;;;;;;;;16.91;42.01;100858.66;4986653;28;943;-48
2023/12/10 12:10:44;;;;;;;;;;;;;;;18.22;39.47;100848.81;4978588;28;1103;-44
2023/12/10 12:13:09;;;;;;;;;;;;;;;17.08;41.46;100842.75;4992593;28;1282;-48
2023/12/10 12:15:35;;;;;;;;;;;;;;;16.70;42.72;100849.56;4977092;28;1065;-50
2023/12/10 12:18:02;;;;;;;;;;;;;;;17.83;40.21;100845.91;4988620;28;1093;-46
2023/12/10 12:20:29;;;;;;;;;;;;;;;17.09;41.79;100833.38;4976388;28;1283;-50
2023/12/10 12:22:55;;;;;;;;;;;;;;;18.73;38.38;100836.66;4988858;28;1901;-49
2023/12/10 12:25:23;;;;;;;;;;;;;;;17.77;40.23;100834.91;4982155;28;1145;-45
2023/12/10 12:27:49;;;;;;;;;;;;;;;17.07;41.93;100824.63;4995349;28;989;-48
2023/12/10 12:30:16;;;;;;;;;;;;;;;18.41;39.06;100829.72;4976701;28;1501;-48
2023/12/10 12:32:42;;;;;;;;;;;;;;;17.39;40.96;100833.63;4970264;28;2223;-49
2023/12/10 12:35:07;;;;;;;;;;;;;;;18.06;39.82;100828.78;4976595;28;1289;-48
2023/12/10 12:37:33;;;;;;;;;;;;;;;17.76;40.49;100827.75;4976139;28;975;-48
2023/12/10 12:39:59;;;;;;;;;;;;;;;17.16;41.55;100833.13;4976060;28;985;-48